sensor_id;sensor_type;location;lat;lon;timestamp;pressure;altitude;pressure_sealevel;temperature;humidity
33163;BME280;29282;45.656;11.302;2022-09-09T00:01:31;98090.06;;;24.14;58.53
33163;BME280;29282;45.656;11.302;2022-09-09T00:09:41;98086.50;;;24.14;58.44
33163;BME280;29282;45.656;11.302;2022-09-09T00:12:12;98085.66;;;24.13;58.68
33163;BME280;29282;45.656;11.302;2022-09-09T00:14:51;98082.09;;;24.13;58.40
33163;BME280;29282;45.656;11.302;2022-09-09T00:17:34;98073.81;;;24.13;58.49
33163;BME280;29282;45.656;11.302;2022-09-09T00:21:13;98083.72;;;24.14;58.55
33163;BME280;29282;45.656;11.302;2022-09-09T00:23:22;98086.50;;;24.14;58.35
33163;BME280;29282;45.656;11.302;2022-09-09T00:26:08;98091.22;;;24.13;58.22
33163;BME280;29282;45.656;11.302;2022-09-09T00:31:36;98087.66;;;24.13;58.81
33163;BME280;29282;45.656;11.302;2022-09-09T00:34:14;98080.53;;;24.12;58.52
33163;BME280;29282;45.656;11.302;2022-09-09T00:36:42;98084.09;;;24.12;58.67
33163;BME280;29282;45.656;11.302;2022-09-09T00:39:30;98075.00;;;24.12;58.44
33163;BME280;29282;45.656;11.302;2022-09-09T00:42:17;98083.28;;;24.12;58.29
33163;BME280;29282;45.656;11.302;2022-09-09T00:45:01;98084.88;;;24.13;58.44
33163;BME280;29282;45.656;11.302;2022-09-09T00:48:00;98087.66;;;24.13;58.40
33163;BME280;29282;45.656;11.302;2022-09-09T00:50:52;98086.06;;;24.12;58.48
33163;BME280;29282;45.656;11.302;2022-09-09T00:56:13;98101.50;;;24.13;58.42
33163;BME280;29282;45.656;11.302;2022-09-09T00:58:43;98094.38;;;24.12;58.38
33163;BME280;29282;45.656;11.302;2022-09-09T01:01:13;98105.44;;;24.12;58.59
33163;BME280;29282;45.656;11.302;2022-09-09T01:03:46;98107.41;;;24.11;58.20
33163;BME280;29282;45.656;11.302;2022-09-09T01:09:22;98110.19;;;24.11;58.31
33163;BME280;29282;45.656;11.302;2022-09-09T01:12:01;98110.19;;;24.11;58.39
33163;BME280;29282;45.656;11.302;2022-09-09T01:17:12;98114.09;;;24.10;58.18
33163;BME280;29282;45.656;11.302;2022-09-09T01:27:41;98112.94;;;24.11;58.30
33163;BME280;29282;45.656;11.302;2022-09-09T01:30:11;98112.94;;;24.11;58.21
33163;BME280;29282;45.656;11.302;2022-09-09T01:32:49;98109.38;;;24.11;58.34
33163;BME280;29282;45.656;11.302;2022-09-09T01:37:50;98106.63;;;24.11;58.35
33163;BME280;29282;45.656;11.302;2022-09-09T01:40:15;98101.09;;;24.11;58.39
33163;BME280;29282;45.656;11.302;2022-09-09T01:42:40;98099.47;;;24.10;58.41
33163;BME280;29282;45.656;11.302;2022-09-09T01:45:06;98100.25;;;24.10;58.35
33163;BME280;29282;45.656;11.302;2022-09-09T01:47:32;98093.94;;;24.10;58.31
33163;BME280;29282;45.656;11.302;2022-09-09T01:49:58;98094.72;;;24.10;58.33
33163;BME280;29282;45.656;11.302;2022-09-09T01:52:24;98097.50;;;24.10;58.51
33163;BME280;29282;45.656;11.302;2022-09-09T01:54:50;98097.50;;;24.10;58.45
33163;BME280;29282;45.656;11.302;2022-09-09T02:07:55;98106.63;;;24.11;58.39
33163;BME280;29282;45.656;11.302;2022-09-09T02:10:33;98098.31;;;24.11;58.25
33163;BME280;29282;45.656;11.302;2022-09-09T02:13:09;98097.50;;;24.10;58.31
33163;BME280;29282;45.656;11.302;2022-09-09T02:18:24;98096.69;;;24.10;58.33
33163;BME280;29282;45.656;11.302;2022-09-09T02:20:53;98096.69;;;24.10;58.59
33163;BME280;29282;45.656;11.302;2022-09-09T02:23:19;98097.50;;;24.10;58.31
33163;BME280;29282;45.656;11.302;2022-09-09T02:25:46;98104.22;;;24.09;58.38
33163;BME280;29282;45.656;11.302;2022-09-09T02:28:14;98102.25;;;24.10;58.32
33163;BME280;29282;45.656;11.302;2022-09-09T02:30:43;98105.78;;;24.10;58.35
33163;BME280;29282;45.656;11.302;2022-09-09T02:33:11;98103.41;;;24.09;58.31
33163;BME280;29282;45.656;11.302;2022-09-09T02:35:42;98099.47;;;24.10;58.28
33163;BME280;29282;45.656;11.302;2022-09-09T02:38:10;98104.22;;;24.09;58.22
33163;BME280;29282;45.656;11.302;2022-09-09T02:40:40;98100.66;;;24.09;58.24
33163;BME280;29282;45.656;11.302;2022-09-09T02:43:06;98103.41;;;24.09;58.15
33163;BME280;29282;45.656;11.302;2022-09-09T02:48:25;98090.75;;;24.08;58.51
33163;BME280;29282;45.656;11.302;2022-09-09T02:51:05;98093.13;;;24.09;58.52
33163;BME280;29282;45.656;11.302;2022-09-09T02:53:58;98090.38;;;24.09;58.26
33163;BME280;29282;45.656;11.302;2022-09-09T02:56:31;98084.03;;;24.09;58.53
33163;BME280;29282;45.656;11.302;2022-09-09T02:59:03;98082.47;;;24.08;58.21
33163;BME280;29282;45.656;11.302;2022-09-09T03:01:29;98086.81;;;24.09;58.45
33163;BME280;29282;45.656;11.302;2022-09-09T03:03:54;98083.25;;;24.08;58.25
33163;BME280;29282;45.656;11.302;2022-09-09T03:06:20;98083.25;;;24.08;58.08
33163;BME280;29282;45.656;11.302;2022-09-09T03:08:45;98078.06;;;24.07;58.23
33163;BME280;29282;45.656;11.302;2022-09-09T03:11:11;98085.22;;;24.08;58.54
33163;BME280;29282;45.656;11.302;2022-09-09T03:13:37;98078.06;;;24.07;58.16
33163;BME280;29282;45.656;11.302;2022-09-09T03:16:03;98074.16;;;24.08;58.55
33163;BME280;29282;45.656;11.302;2022-09-09T03:18:32;98073.38;;;24.07;58.22
33163;BME280;29282;45.656;11.302;2022-09-09T03:21:00;98069.78;;;24.07;58.53
33163;BME280;29282;45.656;11.302;2022-09-09T03:23:26;98070.22;;;24.09;58.53
33163;BME280;29282;45.656;11.302;2022-09-09T03:25:52;98070.97;;;24.06;58.55
33163;BME280;29282;45.656;11.302;2022-09-09T03:28:18;98072.53;;;24.07;58.02
33163;BME280;29282;45.656;11.302;2022-09-09T03:30:47;98061.47;;;24.07;58.23
33163;BME280;29282;45.656;11.302;2022-09-09T03:33:12;98057.13;;;24.06;58.20
33163;BME280;29282;45.656;11.302;2022-09-09T03:35:38;98058.72;;;24.07;58.50
33163;BME280;29282;45.656;11.302;2022-09-09T03:38:04;98054.34;;;24.06;58.52
33163;BME280;29282;45.656;11.302;2022-09-09T03:40:30;98047.25;;;24.05;58.30
33163;BME280;29282;45.656;11.302;2022-09-09T03:42:56;98050.00;;;24.05;58.21
33163;BME280;29282;45.656;11.302;2022-09-09T03:45:21;98052.78;;;24.05;58.21
33163;BME280;29282;45.656;11.302;2022-09-09T03:47:47;98051.59;;;24.06;58.55
33163;BME280;29282;45.656;11.302;2022-09-09T03:50:12;98059.09;;;24.05;58.33
33163;BME280;29282;45.656;11.302;2022-09-09T03:52:39;98057.56;;;24.08;58.21
33163;BME280;29282;45.656;11.302;2022-09-09T03:55:06;98044.88;;;24.07;58.28
33163;BME280;29282;45.656;11.302;2022-09-09T03:57:34;98044.88;;;24.07;58.47
33163;BME280;29282;45.656;11.302;2022-09-09T04:00:05;98046.47;;;24.08;58.25
33163;BME280;29282;45.656;11.302;2022-09-09T04:02:32;98050.03;;;24.08;58.44
33163;BME280;29282;45.656;11.302;2022-09-09T04:04:57;98047.63;;;24.07;58.25
33163;BME280;29282;45.656;11.302;2022-09-09T04:07:23;98040.94;;;24.08;58.25
33163;BME280;29282;45.656;11.302;2022-09-09T04:09:48;98032.22;;;24.06;58.26
33163;BME280;29282;45.656;11.302;2022-09-09T04:12:14;98032.22;;;24.06;58.13
33163;BME280;29282;45.656;11.302;2022-09-09T04:14:39;98035.78;;;24.06;58.58
33163;BME280;29282;45.656;11.302;2022-09-09T04:17:05;98039.34;;;24.07;58.52
33163;BME280;29282;45.656;11.302;2022-09-09T04:19:32;98032.22;;;24.06;58.36
33163;BME280;29282;45.656;11.302;2022-09-09T04:21:57;98031.84;;;24.07;58.37
33163;BME280;29282;45.656;11.302;2022-09-09T04:24:26;98028.25;;;24.07;58.54
33163;BME280;29282;45.656;11.302;2022-09-09T04:26:54;98021.16;;;24.06;58.40
33163;BME280;29282;45.656;11.302;2022-09-09T04:29:20;98023.56;;;24.07;58.35
33163;BME280;29282;45.656;11.302;2022-09-09T04:31:46;98017.19;;;24.07;58.46
33163;BME280;29282;45.656;11.302;2022-09-09T04:34:11;98011.66;;;24.07;58.57
33163;BME280;29282;45.656;11.302;2022-09-09T04:36:37;98021.56;;;24.08;58.57
33163;BME280;29282;45.656;11.302;2022-09-09T04:39:02;98033.44;;;24.08;58.56
33163;BME280;29282;45.656;11.302;2022-09-09T04:41:28;98022.72;;;24.07;58.48
33163;BME280;29282;45.656;11.302;2022-09-09T04:43:54;98021.94;;;24.06;58.82
33163;BME280;29282;45.656;11.302;2022-09-09T04:46:23;98014.06;;;24.08;58.52
33163;BME280;29282;45.656;11.302;2022-09-09T04:48:49;98017.19;;;24.07;58.69
33163;BME280;29282;45.656;11.302;2022-09-09T04:51:15;98021.94;;;24.06;58.61
33163;BME280;29282;45.656;11.302;2022-09-09T04:53:41;98021.94;;;24.06;58.82
33163;BME280;29282;45.656;11.302;2022-09-09T04:56:12;98011.66;;;24.07;58.93
33163;BME280;29282;45.656;11.302;2022-09-09T04:58:38;98011.66;;;24.07;59.16
33163;BME280;29282;45.656;11.302;2022-09-09T05:01:08;98007.31;;;24.06;59.15
33163;BME280;29282;45.656;11.302;2022-09-09T05:03:34;98011.66;;;24.07;58.94
33163;BME280;29282;45.656;11.302;2022-09-09T05:06:17;98021.56;;;24.08;59.01
33163;BME280;29282;45.656;11.302;2022-09-09T05:08:44;98028.25;;;24.07;59.17
33163;BME280;29282;45.656;11.302;2022-09-09T05:11:29;98028.25;;;24.07;59.07
33163;BME280;29282;45.656;11.302;2022-09-09T05:13:55;98032.66;;;24.08;59.07
33163;BME280;29282;45.656;11.302;2022-09-09T05:16:24;98032.66;;;24.08;58.97
33163;BME280;29282;45.656;11.302;2022-09-09T05:18:50;98031.84;;;24.07;59.05
33163;BME280;29282;45.656;11.302;2022-09-09T05:21:20;98036.56;;;24.07;59.11
33163;BME280;29282;45.656;11.302;2022-09-09T05:23:46;98034.63;;;24.07;58.91
33163;BME280;29282;45.656;11.302;2022-09-09T05:26:14;98022.72;;;24.07;59.05
33163;BME280;29282;45.656;11.302;2022-09-09T05:28:40;98025.50;;;24.07;58.95
33163;BME280;29282;45.656;11.302;2022-09-09T05:31:07;98021.16;;;24.06;59.08
33163;BME280;29282;45.656;11.302;2022-09-09T05:33:34;98029.88;;;24.08;58.93
33163;BME280;29282;45.656;11.302;2022-09-09T05:36:02;98031.03;;;24.07;58.85
33163;BME280;29282;45.656;11.302;2022-09-09T05:38:30;98034.63;;;24.07;59.02
33163;BME280;29282;45.656;11.302;2022-09-09T05:40:56;98037.38;;;24.07;58.93
33163;BME280;29282;45.656;11.302;2022-09-09T05:43:23;98040.94;;;24.08;58.98
33163;BME280;29282;45.656;11.302;2022-09-09T05:48:35;98042.09;;;24.07;58.88
33163;BME280;29282;45.656;11.302;2022-09-09T05:51:01;98040.94;;;24.08;59.13
33163;BME280;29282;45.656;11.302;2022-09-09T05:53:28;98047.28;;;24.08;58.97
33163;BME280;29282;45.656;11.302;2022-09-09T05:56:01;98042.53;;;24.09;58.82
33163;BME280;29282;45.656;11.302;2022-09-09T05:58:29;98042.91;;;24.07;58.87
33163;BME280;29282;45.656;11.302;2022-09-09T06:01:12;98045.69;;;24.07;58.93
33163;BME280;29282;45.656;11.302;2022-09-09T06:03:40;98041.75;;;24.08;58.92
33163;BME280;29282;45.656;11.302;2022-09-09T06:06:09;98045.69;;;24.07;59.11
33163;BME280;29282;45.656;11.302;2022-09-09T06:08:40;98044.88;;;24.07;58.93
33163;BME280;29282;45.656;11.302;2022-09-09T06:11:14;98042.91;;;24.07;59.03
33163;BME280;29282;45.656;11.302;2022-09-09T06:13:40;98041.75;;;24.08;58.96
33163;BME280;29282;45.656;11.302;2022-09-09T06:16:09;98039.34;;;24.07;59.03
33163;BME280;29282;45.656;11.302;2022-09-09T06:18:37;98044.88;;;24.07;59.04
33163;BME280;29282;45.656;11.302;2022-09-09T06:21:05;98054.78;;;24.08;59.13
33163;BME280;29282;45.656;11.302;2022-09-09T06:23:32;98053.16;;;24.07;59.27
33163;BME280;29282;45.656;11.302;2022-09-09T06:28:46;98052.81;;;24.08;58.95
33163;BME280;29282;45.656;11.302;2022-09-09T06:31:14;98047.63;;;24.07;59.01
33163;BME280;29282;45.656;11.302;2022-09-09T06:33:43;98050.78;;;24.05;59.15
33163;BME280;29282;45.656;11.302;2022-09-09T06:36:12;98050.78;;;24.05;59.11
33163;BME280;29282;45.656;11.302;2022-09-09T06:38:38;98053.56;;;24.05;59.10
33163;BME280;29282;45.656;11.302;2022-09-09T06:41:08;98055.16;;;24.06;59.08
33163;BME280;29282;45.656;11.302;2022-09-09T06:43:34;98055.94;;;24.07;59.01
33163;BME280;29282;45.656;11.302;2022-09-09T06:46:14;98048.03;;;24.05;59.16
33163;BME280;29282;45.656;11.302;2022-09-09T06:48:41;98056.34;;;24.05;58.99
33163;BME280;29282;45.656;11.302;2022-09-09T06:51:08;98057.13;;;24.06;59.25
33163;BME280;29282;45.656;11.302;2022-09-09T06:53:35;98055.16;;;24.06;59.13
33163;BME280;29282;45.656;11.302;2022-09-09T06:58:42;98061.88;;;24.05;58.98
33163;BME280;29282;45.656;11.302;2022-09-09T07:01:14;98058.72;;;24.07;58.97
33163;BME280;29282;45.656;11.302;2022-09-09T07:03:40;98056.34;;;24.05;58.76
33163;BME280;29282;45.656;11.302;2022-09-09T07:06:08;98055.16;;;24.06;58.83
33163;BME280;29282;45.656;11.302;2022-09-09T07:08:39;98054.00;;;24.07;59.08
33163;BME280;29282;45.656;11.302;2022-09-09T07:11:06;98050.03;;;24.08;58.96
33163;BME280;29282;45.656;11.302;2022-09-09T07:13:33;98051.22;;;24.07;58.58
33163;BME280;29282;45.656;11.302;2022-09-09T07:16:05;98052.03;;;24.08;59.18
33163;BME280;29282;45.656;11.302;2022-09-09T07:18:31;98061.13;;;24.08;59.02
33163;BME280;29282;45.656;11.302;2022-09-09T07:20:56;98049.25;;;24.08;59.04
33163;BME280;29282;45.656;11.302;2022-09-09T07:23:23;98045.28;;;24.09;59.02
33163;BME280;29282;45.656;11.302;2022-09-09T07:25:49;98049.25;;;24.08;59.10
33163;BME280;29282;45.656;11.302;2022-09-09T07:28:16;98054.41;;;24.09;58.88
33163;BME280;29282;45.656;11.302;2022-09-09T07:30:53;98052.03;;;24.08;59.17
33163;BME280;29282;45.656;11.302;2022-09-09T07:33:19;98048.84;;;24.09;59.01
33163;BME280;29282;45.656;11.302;2022-09-09T07:35:45;98044.50;;;24.08;59.05
33163;BME280;29282;45.656;11.302;2022-09-09T07:38:11;98049.66;;;24.10;59.03
33163;BME280;29282;45.656;11.302;2022-09-09T07:40:37;98046.88;;;24.10;59.40
33163;BME280;29282;45.656;11.302;2022-09-09T07:43:03;98049.66;;;24.10;59.08
33163;BME280;29282;45.656;11.302;2022-09-09T07:45:28;98046.88;;;24.10;59.14
33163;BME280;29282;45.656;11.302;2022-09-09T07:47:54;98042.13;;;24.10;59.17
33163;BME280;29282;45.656;11.302;2022-09-09T07:50:22;98044.13;;;24.10;59.15
33163;BME280;29282;45.656;11.302;2022-09-09T07:52:49;98048.50;;;24.11;59.19
33163;BME280;29282;45.656;11.302;2022-09-09T07:55:14;98054.03;;;24.11;59.18
33163;BME280;29282;45.656;11.302;2022-09-09T07:57:40;98050.44;;;24.10;59.24
33163;BME280;29282;45.656;11.302;2022-09-09T08:00:06;98046.88;;;24.10;59.35
33163;BME280;29282;45.656;11.302;2022-09-09T08:02:32;98044.13;;;24.10;59.25
33163;BME280;29282;45.656;11.302;2022-09-09T08:04:57;98044.13;;;24.10;59.05
33163;BME280;29282;45.656;11.302;2022-09-09T08:07:23;98047.66;;;24.10;59.39
33163;BME280;29282;45.656;11.302;2022-09-09T08:09:48;98044.91;;;24.10;59.25
33163;BME280;29282;45.656;11.302;2022-09-09T08:12:15;98044.13;;;24.10;59.24
33163;BME280;29282;45.656;11.302;2022-09-09T08:14:41;98055.19;;;24.10;59.29
33163;BME280;29282;45.656;11.302;2022-09-09T08:17:07;98055.97;;;24.10;59.47
33163;BME280;29282;45.656;11.302;2022-09-09T08:19:32;98054.41;;;24.09;59.23
33163;BME280;29282;45.656;11.302;2022-09-09T08:22:01;98049.66;;;24.10;59.22
33163;BME280;29282;45.656;11.302;2022-09-09T08:24:27;98055.63;;;24.12;59.41
33163;BME280;29282;45.656;11.302;2022-09-09T08:26:53;98049.28;;;24.11;59.21
33163;BME280;29282;45.656;11.302;2022-09-09T08:29:19;98056.81;;;24.11;59.11
33163;BME280;29282;45.656;11.302;2022-09-09T08:34:13;98064.72;;;24.12;59.01
33163;BME280;29282;45.656;11.302;2022-09-09T08:36:43;98062.72;;;24.13;59.07
33163;BME280;29282;45.656;11.302;2022-09-09T08:39:12;98065.50;;;24.13;58.92
33163;BME280;29282;45.656;11.302;2022-09-09T08:44:47;98056.03;;;24.14;58.88
33163;BME280;29282;45.656;11.302;2022-09-09T09:12:27;98033.09;;;24.13;58.97
33163;BME280;29282;45.656;11.302;2022-09-09T09:14:54;98031.13;;;24.14;58.70
33163;BME280;29282;45.656;11.302;2022-09-09T09:17:23;98028.38;;;24.14;58.84
33163;BME280;29282;45.656;11.302;2022-09-09T09:19:51;98031.94;;;24.14;58.93
33163;BME280;29282;45.656;11.302;2022-09-09T09:22:31;98017.66;;;24.12;59.07
33163;BME280;29282;45.656;11.302;2022-09-09T09:27:47;98027.53;;;24.13;59.03
33163;BME280;29282;45.656;11.302;2022-09-09T09:30:23;98022.81;;;24.14;59.00
33163;BME280;29282;45.656;11.302;2022-09-09T09:32:58;98013.72;;;24.13;58.96
33163;BME280;29282;45.656;11.302;2022-09-09T09:35:25;98016.47;;;24.13;58.85
33163;BME280;29282;45.656;11.302;2022-09-09T09:37:50;98018.09;;;24.14;59.03
33163;BME280;29282;45.656;11.302;2022-09-09T09:40:19;98014.53;;;24.14;58.96
33163;BME280;29282;45.656;11.302;2022-09-09T09:42:53;98012.91;;;24.13;59.13
33163;BME280;29282;45.656;11.302;2022-09-09T09:45:35;98012.91;;;24.13;59.17
33163;BME280;29282;45.656;11.302;2022-09-09T09:48:09;98013.72;;;24.13;58.97
33163;BME280;29282;45.656;11.302;2022-09-09T09:50:47;98011.75;;;24.14;58.90
33163;BME280;29282;45.656;11.302;2022-09-09T09:53:25;98010.16;;;24.13;58.95
33163;BME280;29282;45.656;11.302;2022-09-09T09:56:03;98010.16;;;24.13;59.13
33163;BME280;29282;45.656;11.302;2022-09-09T09:58:31;98009.78;;;24.14;59.19
33163;BME280;29282;45.656;11.302;2022-09-09T10:01:00;98012.56;;;24.14;59.17
33163;BME280;29282;45.656;11.302;2022-09-09T10:03:33;98018.09;;;24.14;59.12
33163;BME280;29282;45.656;11.302;2022-09-09T10:06:05;98005.41;;;24.13;58.77
33163;BME280;29282;45.656;11.302;2022-09-09T10:08:44;97992.75;;;24.12;59.12
33163;BME280;29282;45.656;11.302;2022-09-09T10:13:54;97997.09;;;24.13;58.97
33163;BME280;29282;45.656;11.302;2022-09-09T10:19:41;98001.06;;;24.12;59.09
33163;BME280;29282;45.656;11.302;2022-09-09T10:22:19;97998.28;;;24.12;59.19
33163;BME280;29282;45.656;11.302;2022-09-09T10:27:54;98001.06;;;24.12;59.06
33163;BME280;29282;45.656;11.302;2022-09-09T10:30:35;98000.25;;;24.12;58.91
33163;BME280;29282;45.656;11.302;2022-09-09T10:33:15;98011.34;;;24.12;58.88
33163;BME280;29282;45.656;11.302;2022-09-09T10:38:42;98027.94;;;24.12;59.03
33163;BME280;29282;45.656;11.302;2022-09-09T10:44:32;98028.72;;;24.12;58.79
33163;BME280;29282;45.656;11.302;2022-09-09T10:47:25;98014.09;;;24.12;59.08
33163;BME280;29282;45.656;11.302;2022-09-09T10:52:42;98033.47;;;24.12;58.93
33163;BME280;29282;45.656;11.302;2022-09-09T10:55:23;98041.78;;;24.12;59.22
33163;BME280;29282;45.656;11.302;2022-09-09T10:57:56;98048.09;;;24.12;59.06
33163;BME280;29282;45.656;11.302;2022-09-09T11:00:40;98052.06;;;24.11;58.92
33163;BME280;29282;45.656;11.302;2022-09-09T11:03:08;98075.78;;;24.12;58.91
33163;BME280;29282;45.656;11.302;2022-09-09T11:05:55;98072.22;;;24.12;59.03
33163;BME280;29282;45.656;11.302;2022-09-09T11:08:30;98080.53;;;24.12;59.01
33163;BME280;29282;45.656;11.302;2022-09-09T11:16:29;98080.53;;;24.12;58.95
33163;BME280;29282;45.656;11.302;2022-09-09T11:19:39;98079.72;;;24.11;58.89
33163;BME280;29282;45.656;11.302;2022-09-09T11:22:30;98074.19;;;24.11;58.87
33163;BME280;29282;45.656;11.302;2022-09-09T11:25:08;98073.41;;;24.11;58.73
33163;BME280;29282;45.656;11.302;2022-09-09T11:36:12;98035.81;;;24.10;58.70
33163;BME280;29282;45.656;11.302;2022-09-09T11:38:47;98046.88;;;24.10;58.79
33163;BME280;29282;45.656;11.302;2022-09-09T11:41:17;98051.25;;;24.11;58.79
33163;BME280;29282;45.656;11.302;2022-09-09T11:43:44;98042.53;;;24.09;58.64
33163;BME280;29282;45.656;11.302;2022-09-09T11:46:12;98027.50;;;24.10;58.94
33163;BME280;29282;45.656;11.302;2022-09-09T11:48:44;98026.72;;;24.09;58.81
33163;BME280;29282;45.656;11.302;2022-09-09T11:53:49;98024.75;;;24.10;58.69
33163;BME280;29282;45.656;11.302;2022-09-09T11:56:31;98033.84;;;24.10;58.90
33163;BME280;29282;45.656;11.302;2022-09-09T11:59:00;98027.50;;;24.10;58.72
33163;BME280;29282;45.656;11.302;2022-09-09T12:01:39;98033.84;;;24.10;58.72
33163;BME280;29282;45.656;11.302;2022-09-09T12:07:46;98029.13;;;24.11;58.62
33163;BME280;29282;45.656;11.302;2022-09-09T12:09:54;98015.66;;;24.09;58.93
33163;BME280;29282;45.656;11.302;2022-09-09T12:12:31;98020.00;;;24.10;58.80
33163;BME280;29282;45.656;11.302;2022-09-09T12:17:27;98022.75;;;24.10;58.61
33163;BME280;29282;45.656;11.302;2022-09-09T12:20:15;98011.69;;;24.10;58.82
33163;BME280;29282;45.656;11.302;2022-09-09T12:23:22;98011.69;;;24.10;58.78
33163;BME280;29282;45.656;11.302;2022-09-09T12:26:03;98005.38;;;24.10;58.68
33163;BME280;29282;45.656;11.302;2022-09-09T12:36:37;98013.66;;;24.10;59.02
33163;BME280;29282;45.656;11.302;2022-09-09T12:39:16;98010.91;;;24.10;58.80
33163;BME280;29282;45.656;11.302;2022-09-09T12:41:53;98010.91;;;24.10;58.58
33163;BME280;29282;45.656;11.302;2022-09-09T12:44:24;98007.34;;;24.09;58.70
33163;BME280;29282;45.656;11.302;2022-09-09T12:46:51;98013.66;;;24.10;58.82
33163;BME280;29282;45.656;11.302;2022-09-09T12:51:56;98006.16;;;24.10;58.69
33163;BME280;29282;45.656;11.302;2022-09-09T12:54:22;98006.16;;;24.10;58.89
33163;BME280;29282;45.656;11.302;2022-09-09T12:56:52;98001.44;;;24.11;58.83
33163;BME280;29282;45.656;11.302;2022-09-09T12:59:50;98012.50;;;24.11;58.51
33163;BME280;29282;45.656;11.302;2022-09-09T13:02:20;98000.63;;;24.10;58.67
33163;BME280;29282;45.656;11.302;2022-09-09T13:04:46;98005.78;;;24.12;58.81
33163;BME280;29282;45.656;11.302;2022-09-09T13:07:13;98009.75;;;24.11;58.88
33163;BME280;29282;45.656;11.302;2022-09-09T13:09:39;98007.78;;;24.11;58.48
33163;BME280;29282;45.656;11.302;2022-09-09T13:12:13;98002.22;;;24.11;58.66
33163;BME280;29282;45.656;11.302;2022-09-09T13:14:43;98006.97;;;24.11;58.69
33163;BME280;29282;45.656;11.302;2022-09-09T13:17:21;98004.22;;;24.11;58.54
33163;BME280;29282;45.656;11.302;2022-09-09T13:19:47;98006.97;;;24.11;58.85
33163;BME280;29282;45.656;11.302;2022-09-09T13:25:24;98006.97;;;24.11;58.64
33163;BME280;29282;45.656;11.302;2022-09-09T13:28:18;98001.06;;;24.12;58.56
33163;BME280;29282;45.656;11.302;2022-09-09T13:30:56;98000.69;;;24.14;58.58
33163;BME280;29282;45.656;11.302;2022-09-09T13:33:29;97995.16;;;24.14;58.39
33163;BME280;29282;45.656;11.302;2022-09-09T13:38:21;97985.66;;;24.15;58.61
33163;BME280;29282;45.656;11.302;2022-09-09T13:40:59;97986.03;;;24.13;58.52
33163;BME280;29282;45.656;11.302;2022-09-09T13:43:28;97982.91;;;24.15;58.49
33163;BME280;29282;45.656;11.302;2022-09-09T13:45:59;97984.88;;;24.14;58.29
33163;BME280;29282;45.656;11.302;2022-09-09T13:48:25;97987.63;;;24.14;58.37
33163;BME280;29282;45.656;11.302;2022-09-09T13:51:02;97978.91;;;24.12;58.75
33163;BME280;29282;45.656;11.302;2022-09-09T13:53:30;97972.19;;;24.13;58.63
33163;BME280;29282;45.656;11.302;2022-09-09T13:55:57;97969.41;;;24.13;58.63
33163;BME280;29282;45.656;11.302;2022-09-09T13:58:23;97972.19;;;24.13;58.56
33163;BME280;29282;45.656;11.302;2022-09-09T14:00:51;97967.47;;;24.14;58.38
33163;BME280;29282;45.656;11.302;2022-09-09T14:03:16;97968.25;;;24.14;58.46
33163;BME280;29282;45.656;11.302;2022-09-09T14:05:46;97959.16;;;24.14;58.61
33163;BME280;29282;45.656;11.302;2022-09-09T14:08:20;97948.88;;;24.14;58.50
33163;BME280;29282;45.656;11.302;2022-09-09T14:10:47;97957.19;;;24.14;58.47
33163;BME280;29282;45.656;11.302;2022-09-09T14:13:12;97955.22;;;24.15;58.28
33163;BME280;29282;45.656;11.302;2022-09-09T14:15:40;97948.09;;;24.14;58.60
33163;BME280;29282;45.656;11.302;2022-09-09T14:18:10;97945.31;;;24.14;58.46
33163;BME280;29282;45.656;11.302;2022-09-09T14:20:37;97944.16;;;24.15;58.34
33163;BME280;29282;45.656;11.302;2022-09-09T14:23:02;97938.59;;;24.15;58.49
33163;BME280;29282;45.656;11.302;2022-09-09T14:25:28;97942.16;;;24.15;58.69
33163;BME280;29282;45.656;11.302;2022-09-09T14:27:53;97953.25;;;24.15;58.47
33163;BME280;29282;45.656;11.302;2022-09-09T14:30:19;97950.06;;;24.17;58.49
33163;BME280;29282;45.656;11.302;2022-09-09T14:32:44;97947.69;;;24.15;58.35
33163;BME280;29282;45.656;11.302;2022-09-09T14:35:10;97944.94;;;24.15;58.65
33163;BME280;29282;45.656;11.302;2022-09-09T14:37:36;97949.28;;;24.17;58.57
33163;BME280;29282;45.656;11.302;2022-09-09T14:40:04;97945.72;;;24.16;58.55
33163;BME280;29282;45.656;11.302;2022-09-09T14:42:30;97946.91;;;24.15;58.52
33163;BME280;29282;45.656;11.302;2022-09-09T14:44:55;97952.84;;;24.17;58.53
33163;BME280;29282;45.656;11.302;2022-09-09T14:47:21;97946.16;;;24.18;58.33
33163;BME280;29282;45.656;11.302;2022-09-09T14:49:47;97956.44;;;24.18;58.72
33163;BME280;29282;45.656;11.302;2022-09-09T14:52:14;97950.06;;;24.17;58.60
33163;BME280;29282;45.656;11.302;2022-09-09T14:54:40;97950.91;;;24.18;58.70
33163;BME280;29282;45.656;11.302;2022-09-09T14:57:05;97946.16;;;24.18;58.56
33163;BME280;29282;45.656;11.302;2022-09-09T14:59:31;97949.72;;;24.19;58.40
33163;BME280;29282;45.656;11.302;2022-09-09T15:01:56;97951.69;;;24.18;58.52
33163;BME280;29282;45.656;11.302;2022-09-09T15:04:22;97955.25;;;24.19;58.50
33163;BME280;29282;45.656;11.302;2022-09-09T15:06:47;97962.75;;;24.18;58.29
33163;BME280;29282;45.656;11.302;2022-09-09T15:09:15;97960.78;;;24.19;58.33
33163;BME280;29282;45.656;11.302;2022-09-09T15:11:40;97961.22;;;24.21;58.31
33163;BME280;29282;45.656;11.302;2022-09-09T15:14:08;97954.84;;;24.20;58.49
33163;BME280;29282;45.656;11.302;2022-09-09T15:16:34;97955.25;;;24.19;58.50
33163;BME280;29282;45.656;11.302;2022-09-09T15:19:01;97949.72;;;24.19;58.26
33163;BME280;29282;45.656;11.302;2022-09-09T15:21:29;97957.22;;;24.18;58.34
33163;BME280;29282;45.656;11.302;2022-09-09T15:23:56;97956.03;;;24.19;58.19
33163;BME280;29282;45.656;11.302;2022-09-09T15:26:22;97958.00;;;24.19;58.42
33163;BME280;29282;45.656;11.302;2022-09-09T15:28:48;97958.81;;;24.19;58.55